| time (UTC) | temp F | wind direction | speed knots | gust knots | rain 1hr in | rain 24hr in | rain mn in | humidity % | barometer mb |
| 20260506191558 | 66 | 131 | 2.6 | 6.1 | 0.00 | 0.02 | 0.02 | 79 | 1009.2 |
| 20260506184558 | 63 | 224 | 2.6 | 7.0 | 0.02 | 0.02 | 0.02 | 83 | 1009.5 |
| 20260506183057 | 63 | 134 | 2.6 | 5.2 | 0.02 | 0.02 | 0.02 | 84 | 1009.7 |
| 20260506181559 | 62 | 0 | 0.0 | 5.2 | 0.02 | 0.02 | 0.02 | 85 | 1009.7 |
| 20260506180057 | 62 | 212 | 1.7 | 6.1 | 0.01 | 0.01 | 0.01 | 82 | 1010.3 |
| 20260506174558 | 63 | 126 | 2.6 | 7.0 | 0.00 | 0.00 | 0.00 | 80 | 1010.2 |
| 20260506173127 | 64 | 184 | 1.7 | 7.8 | 0.00 | 0.00 | 0.00 | 80 | 1010.4 |
| 20260506171610 | 64 | 246 | 1.7 | 9.6 | 0.00 | 0.00 | 0.00 | 80 | 1010.4 |
| 20260506170057 | 64 | 10 | 2.6 | 10.4 | 0.00 | 0.00 | 0.00 | 78 | 1010.4 |
| 20260506164606 | 64 | 145 | 2.6 | 10.4 | 0.00 | 0.00 | 0.00 | 76 | 1010.9 |
| 20260506163107 | 64 | 186 | 3.5 | 8.7 | 0.00 | 0.00 | 0.00 | 75 | 1011.3 |
| 20260506161639 | 64 | 139 | 2.6 | 7.8 | 0.00 | 0.00 | 0.00 | 75 | 1011.4 |
| 20260506160108 | 64 | 219 | 2.6 | 9.6 | 0.00 | 0.00 | 0.00 | 76 | 1011.5 |
| 20260506154600 | 65 | 189 | 3.5 | 10.4 | 0.00 | 0.00 | 0.00 | 74 | 1011.6 |
| 20260506153100 | 66 | 186 | 3.5 | 10.4 | 0.00 | 0.00 | 0.00 | 74 | 1011.7 |
| 20260506151558 | 67 | 124 | 3.5 | 7.8 | 0.00 | 0.00 | 0.00 | 73 | 1011.6 |
| 20260506150059 | 67 | 263 | 3.5 | 9.6 | 0.00 | 0.00 | 0.00 | 72 | 1011.6 |
| 20260506144559 | 67 | 186 | 2.6 | 8.7 | 0.00 | 0.00 | 0.00 | 72 | 1011.7 |
| 20260506143058 | 68 | 193 | 2.6 | 8.7 | 0.00 | 0.00 | 0.00 | 71 | 1011.8 |
| 20260506141600 | 67 | 238 | 2.6 | 8.7 | 0.00 | 0.00 | 0.00 | 72 | 1011.9 |
| 20260506134556 | 64 | 122 | 4.3 | 7.8 | 0.00 | 0.00 | 0.00 | 76 | 1011.9 |
| 20260506133100 | 65 | 225 | 3.5 | 9.6 | 0.00 | 0.00 | 0.00 | 74 | 1012.0 |
| 20260506131602 | 66 | 163 | 2.6 | 8.7 | 0.00 | 0.00 | 0.00 | 73 | 1012.1 |
| 20260506130131 | 66 | 148 | 2.6 | 7.0 | 0.00 | 0.00 | 0.00 | 72 | 1012.0 |
| 20260506124601 | 65 | 160 | 2.6 | 8.7 | 0.00 | 0.00 | 0.00 | 76 | 1012.0 |
| 20260506123057 | 64 | 128 | 2.6 | 8.7 | 0.00 | 0.00 | 0.00 | 77 | 1012.1 |
| 20260506121559 | 63 | 162 | 1.7 | 9.6 | 0.00 | 0.00 | 0.00 | 79 | 1012.2 |
| 20260506120105 | 63 | 166 | 2.6 | 7.0 | 0.00 | 0.00 | 0.00 | 79 | 1012.2 |
| 20260506114557 | 62 | 144 | 2.6 | 8.7 | 0.00 | 0.00 | 0.00 | 81 | 1012.0 |
| 20260506113058 | 60 | 225 | 1.7 | 7.8 | 0.00 | 0.00 | 0.00 | 84 | 1012.1 |
| 20260506111555 | 59 | 232 | 1.7 | 4.3 | 0.00 | 0.00 | 0.00 | 85 | 1012.2 |
| 20260506104558 | 58 | 205 | 1.7 | 6.1 | 0.00 | 0.00 | 0.00 | 87 | 1012.3 |
| 20260506103059 | 57 | 266 | 0.0 | 7.0 | 0.00 | 0.00 | 0.00 | 87 | 1012.1 |
| 20260506101608 | 57 | 136 | 0.9 | 4.3 | 0.00 | 0.00 | 0.00 | 87 | 1011.9 |
| 20260506100119 | 57 | 278 | 1.7 | 7.0 | 0.00 | 0.00 | 0.00 | 87 | 1011.9 |
| 20260506094556 | 57 | 0 | 0.9 | 7.0 | 0.00 | 0.00 | 0.00 | 87 | 1011.8 |
| 20260506093059 | 57 | 233 | 0.0 | 7.0 | 0.00 | 0.00 | 0.00 | 86 | 1011.8 |
| 20260506091558 | 58 | 153 | 1.7 | 5.2 | 0.00 | 0.00 | 0.00 | 85 | 1011.9 |
| 20260506090057 | 58 | 165 | 1.7 | 7.8 | 0.00 | 0.00 | 0.00 | 85 | 1012.0 |
| 20260506084621 | 58 | 186 | 1.7 | 5.2 | 0.00 | 0.00 | 0.00 | 86 | 1012.3 |
| 20260506083058 | 58 | 160 | 1.7 | 6.1 | 0.00 | 0.00 | 0.00 | 86 | 1012.3 |
| 20260506081600 | 58 | 137 | 0.9 | 7.0 | 0.00 | 0.00 | 0.00 | 85 | 1012.3 |
| 20260506073057 | 58 | 167 | 1.7 | 5.2 | 0.00 | 0.00 | 0.00 | 86 | 1012.2 |
| 20260506071559 | 58 | 150 | 1.7 | 9.6 | 0.00 | 0.00 | 0.00 | 86 | 1012.2 |
| 20260506061556 | 58 | 133 | 0.9 | 5.2 | 0.00 | 0.00 | 0.00 | 84 | 1012.4 |
| 20260506044704 | 60 | 193 | 2.6 | 8.7 | 0.00 | 0.00 | 0.00 | 80 | 1013.0 |
| 20260506043108 | 59 | 168 | 2.6 | 11.3 | 0.00 | 0.00 | 0.00 | 80 | 1012.9 |
| 20260506041603 | 59 | 181 | 1.7 | 6.1 | 0.00 | 0.00 | 0.00 | 80 | 1012.9 |
| 20260506040057 | 60 | 166 | 1.7 | 7.8 | 0.00 | 0.00 | 0.00 | 80 | 1012.9 |
| 20260506034627 | 60 | 179 | 2.6 | 8.7 | 0.00 | 0.00 | 0.00 | 79 | 1012.9 |
| 20260506033103 | 60 | 162 | 3.5 | 8.7 | 0.00 | 0.00 | 0.00 | 78 | 1013.0 |
| 20260506031603 | 60 | 195 | 2.6 | 10.4 | 0.00 | 0.00 | 0.00 | 78 | 1013.1 |
| 20260506030057 | 61 | 223 | 3.5 | 7.8 | 0.00 | 0.00 | 0.00 | 77 | 1013.1 |
| 20260506024558 | 61 | 207 | 2.6 | 7.0 | 0.00 | 0.00 | 0.00 | 76 | 1013.1 |
| 20260506023113 | 62 | 243 | 3.5 | 13.0 | 0.00 | 0.00 | 0.00 | 75 | 1013.1 |
| 20260506021559 | 62 | 241 | 2.6 | 10.4 | 0.00 | 0.00 | 0.00 | 75 | 1013.1 |
| 20260506020100 | 61 | 231 | 5.2 | 16.5 | 0.00 | 0.00 | 0.00 | 75 | 1013.1 |
| 20260506014602 | 61 | 265 | 3.5 | 12.2 | 0.00 | 0.00 | 0.00 | 75 | 1013.0 |
| 20260506013103 | 61 | 208 | 3.5 | 9.6 | 0.00 | 0.00 | 0.00 | 75 | 1012.9 |
| 20260506011627 | 61 | 233 | 3.5 | 14.8 | 0.00 | 0.00 | 0.00 | 76 | 1013.0 |
| 20260506010103 | 60 | 249 | 4.3 | 15.6 | 0.00 | 0.00 | 0.00 | 76 | 1012.8 |
| 20260506004631 | 61 | 207 | 4.3 | 13.9 | 0.00 | 0.00 | 0.00 | 77 | 1012.6 |
| 20260506003113 | 61 | 252 | 2.6 | 9.6 | 0.00 | 0.00 | 0.00 | 76 | 1012.7 |
| 20260506001559 | 61 | 227 | 4.3 | 11.3 | 0.00 | 0.00 | 0.00 | 75 | 1012.6 |
| 20260506000100 | 62 | 212 | 3.5 | 10.4 | 0.00 | 0.00 | 0.00 | 74 | 1012.4 |
| 20260505234630 | 63 | 203 | 5.2 | 14.8 | 0.00 | 0.00 | 0.00 | 72 | 1012.5 |
| 20260505233105 | 64 | 231 | 3.5 | 11.3 | 0.00 | 0.00 | 0.00 | 71 | 1012.2 |
| 20260505231600 | 65 | 300 | 4.3 | 12.2 | 0.00 | 0.00 | 0.00 | 68 | 1012.2 |
| 20260505230057 | 67 | 176 | 4.3 | 15.6 | 0.00 | 0.00 | 0.00 | 66 | 1012.2 |
| 20260505224607 | 67 | 11 | 3.5 | 14.8 | 0.00 | 0.00 | 0.00 | 66 | 1012.2 |
| 20260505223057 | 67 | 203 | 3.5 | 12.2 | 0.00 | 0.00 | 0.00 | 66 | 1011.8 |
| 20260505221557 | 67 | 235 | 5.2 | 13.0 | 0.00 | 0.00 | 0.00 | 66 | 1011.8 |
| 20260505220105 | 67 | 174 | 4.3 | 16.5 | 0.00 | 0.00 | 0.00 | 66 | 1011.7 |
| 20260505214604 | 68 | 191 | 4.3 | 14.8 | 0.00 | 0.00 | 0.00 | 64 | 1011.6 |
| 20260505213103 | 69 | 174 | 5.2 | 13.9 | 0.00 | 0.00 | 0.00 | 64 | 1011.5 |
| 20260505211602 | 69 | 111 | 3.5 | 12.2 | 0.00 | 0.00 | 0.00 | 64 | 1011.5 |
| 20260505210058 | 69 | 140 | 5.2 | 11.3 | 0.00 | 0.00 | 0.00 | 64 | 1011.5 |
| 20260505204606 | 69 | 204 | 3.5 | 13.0 | 0.00 | 0.00 | 0.00 | 63 | 1011.5 |
| 20260505203058 | 70 | 263 | 3.5 | 16.5 | 0.00 | 0.00 | 0.00 | 63 | 1011.5 |
| 20260505201557 | 70 | 226 | 2.6 | 10.4 | 0.00 | 0.00 | 0.00 | 64 | 1011.4 |
| 20260505200104 | 71 | 74 | 4.3 | 11.3 | 0.00 | 0.00 | 0.00 | 63 | 1011.6 |
| 20260505194559 | 72 | 147 | 2.6 | 12.2 | 0.00 | 0.00 | 0.00 | 62 | 1011.6 |
| 20260505193058 | 71 | 212 | 5.2 | 11.3 | 0.00 | 0.00 | 0.00 | 64 | 1011.8 |